createdAt,value
2019-02-22T00:00:50.282Z,0.00
2019-02-22T00:01:50.199Z,0.00
2019-02-22T00:02:50.113Z,0.00
2019-02-22T00:03:50.031Z,0.00
2019-02-22T00:04:49.948Z,0.00
2019-02-22T00:05:49.866Z,0.00
2019-02-22T00:06:49.785Z,0.00
2019-02-22T00:07:49.695Z,0.00
2019-02-22T00:08:49.615Z,0.00
2019-02-22T00:09:49.946Z,0.00
2019-02-22T00:10:49.451Z,0.00
2019-02-22T00:11:49.363Z,0.00
2019-02-22T00:12:49.278Z,0.00
2019-02-22T00:13:49.196Z,0.00
2019-02-22T00:14:49.114Z,0.00
2019-02-22T00:15:49.032Z,0.00
2019-02-22T00:16:48.949Z,0.00
2019-02-22T00:17:48.862Z,0.00
2019-02-22T00:18:48.780Z,0.00
2019-02-22T00:19:48.819Z,0.00
2019-02-22T00:20:48.613Z,0.00
2019-02-22T00:21:48.531Z,0.00
2019-02-22T00:22:48.447Z,0.00
2019-02-22T00:23:48.362Z,0.00
2019-02-22T00:24:48.278Z,0.00
2019-02-22T00:25:48.196Z,0.00
2019-02-22T00:26:48.112Z,0.00
2019-02-22T00:27:48.028Z,0.00
2019-02-22T00:28:47.943Z,0.00
2019-02-22T00:29:47.861Z,0.00
2019-02-22T00:30:47.776Z,0.00
2019-02-22T00:31:47.693Z,0.00
2019-02-22T00:32:47.611Z,0.00
2019-02-22T00:33:47.528Z,0.00
2019-02-22T00:34:47.500Z,0.00
2019-02-22T00:35:47.417Z,0.00
2019-02-22T00:36:47.295Z,0.00
2019-02-22T00:37:47.199Z,0.00
2019-02-22T00:38:47.110Z,0.00
2019-02-22T00:39:47.029Z,0.00
2019-02-22T00:40:46.951Z,0.00
2019-02-22T00:41:46.862Z,0.00
2019-02-22T00:42:46.779Z,0.00
2019-02-22T00:43:46.692Z,0.00
2019-02-22T00:44:46.611Z,0.00
2019-02-22T00:45:46.526Z,0.00
2019-02-22T00:46:46.459Z,0.00
2019-02-22T00:47:46.355Z,0.00
2019-02-22T00:48:46.276Z,0.00
2019-02-22T00:49:46.195Z,0.00
2019-02-22T00:50:46.109Z,0.00
2019-02-22T00:51:46.026Z,0.00
2019-02-22T00:52:45.945Z,0.00
2019-02-22T00:53:45.861Z,0.00
2019-02-22T00:54:45.774Z,0.00
2019-02-22T00:55:45.691Z,0.00
2019-02-22T00:56:45.613Z,0.00
2019-02-22T00:57:45.529Z,0.00
2019-02-22T00:58:45.443Z,0.00
2019-02-22T00:59:45.359Z,0.00
2019-02-22T01:00:45.275Z,0.00
2019-02-22T01:01:45.193Z,0.00
2019-02-22T01:02:45.109Z,0.00
2019-02-22T01:03:45.030Z,0.00
2019-02-22T01:04:44.941Z,0.00
2019-02-22T01:05:44.862Z,0.00
2019-02-22T01:06:44.778Z,0.00
2019-02-22T01:07:44.696Z,0.00
2019-02-22T01:08:44.607Z,0.00
2019-02-22T01:09:44.520Z,0.00
2019-02-22T01:10:44.440Z,0.00
2019-02-22T01:11:44.355Z,0.00
2019-02-22T01:12:44.276Z,0.00
2019-02-22T01:13:44.191Z,0.00
2019-02-22T01:14:44.110Z,0.00
2019-02-22T01:15:44.027Z,0.00
2019-02-22T01:16:43.941Z,0.00
2019-02-22T01:17:43.859Z,0.00
2019-02-22T01:18:43.774Z,0.00
2019-02-22T01:19:43.698Z,0.00
2019-02-22T01:20:53.742Z,0.00
2019-02-22T01:21:43.523Z,0.00
2019-02-22T01:22:43.442Z,0.00
2019-02-22T01:23:43.370Z,0.00
2019-02-22T01:24:43.272Z,0.00
2019-02-22T01:25:43.192Z,0.00
2019-02-22T01:26:43.109Z,0.00
2019-02-22T01:27:43.026Z,0.00
2019-02-22T01:28:42.943Z,0.00
2019-02-22T01:29:42.859Z,0.00
2019-02-22T01:30:42.774Z,0.00
2019-02-22T01:31:42.705Z,0.00
2019-02-22T01:32:42.607Z,0.00
2019-02-22T01:33:42.523Z,0.00
2019-02-22T01:34:42.446Z,0.00
2019-02-22T01:35:42.356Z,0.00
2019-02-22T01:36:42.272Z,0.00
2019-02-22T01:37:42.189Z,0.00
2019-02-22T01:38:42.107Z,0.00
2019-02-22T01:39:42.021Z,0.00
2019-02-22T01:40:43.963Z,0.00
2019-02-22T01:41:41.860Z,0.00
2019-02-22T01:42:41.771Z,0.00
2019-02-22T01:43:41.689Z,0.00
2019-02-22T01:44:41.605Z,0.00
2019-02-22T01:45:41.527Z,0.00
2019-02-22T01:46:41.436Z,0.00
2019-02-22T01:47:41.383Z,0.00
2019-02-22T01:48:41.273Z,0.00
2019-02-22T01:49:41.192Z,0.00
2019-02-22T01:50:41.109Z,0.00
2019-02-22T01:51:41.017Z,0.00
2019-02-22T01:52:40.969Z,0.00
2019-02-22T01:53:40.850Z,0.00
2019-02-22T01:54:40.768Z,0.00
2019-02-22T01:55:40.683Z,0.00
2019-02-22T01:56:40.600Z,0.00
2019-02-22T01:57:40.523Z,0.00
2019-02-22T01:58:48.384Z,0.00
2019-02-22T01:59:40.347Z,0.00
2019-02-22T02:00:40.263Z,0.00
2019-02-22T02:01:40.184Z,0.00
2019-02-22T02:02:40.099Z,0.00
2019-02-22T02:03:40.014Z,0.00
2019-02-22T02:04:39.939Z,0.00
2019-02-22T02:05:39.846Z,0.00
2019-02-22T02:06:39.764Z,0.00
2019-02-22T02:07:39.679Z,0.00
2019-02-22T02:08:39.596Z,0.00
2019-02-22T02:09:39.514Z,0.00
2019-02-22T02:10:39.432Z,0.00
2019-02-22T02:11:39.347Z,0.00
2019-02-22T02:12:39.263Z,0.00
2019-02-22T02:13:39.181Z,0.00
2019-02-22T02:14:39.093Z,0.00
2019-02-22T02:15:39.006Z,0.00
2019-02-22T02:16:38.924Z,0.00
2019-02-22T02:17:38.844Z,0.00
2019-02-22T02:18:38.781Z,0.00
2019-02-22T02:19:38.675Z,0.00
2019-02-22T02:20:38.596Z,0.00
2019-02-22T02:21:38.513Z,0.00
2019-02-22T02:22:38.426Z,0.00
2019-02-22T02:23:38.341Z,0.00
2019-02-22T02:24:38.257Z,0.00
2019-02-22T02:25:38.173Z,0.00
2019-02-22T02:26:38.091Z,0.00
2019-02-22T02:27:38.004Z,0.00
2019-02-22T02:28:37.924Z,0.00
2019-02-22T02:29:37.842Z,0.00
2019-02-22T02:30:37.754Z,0.00
2019-02-22T02:31:37.671Z,0.00
2019-02-22T02:32:37.586Z,0.00
2019-02-22T02:33:37.503Z,0.00
2019-02-22T02:34:37.420Z,0.00
2019-02-22T02:35:37.336Z,0.00
2019-02-22T02:36:37.253Z,0.00
2019-02-22T02:37:37.166Z,0.00
2019-02-22T02:38:37.098Z,0.00
2019-02-22T02:39:37.005Z,0.00
2019-02-22T02:40:36.920Z,0.00
2019-02-22T02:41:36.833Z,0.00
2019-02-22T02:42:36.759Z,0.00
2019-02-22T02:43:36.667Z,0.00
2019-02-22T02:44:36.581Z,0.00
2019-02-22T02:45:36.499Z,0.00
2019-02-22T02:46:36.416Z,0.00
2019-02-22T02:47:36.332Z,0.00
2019-02-22T02:48:36.245Z,0.00
2019-02-22T02:49:36.164Z,0.00
2019-02-22T02:50:36.079Z,0.00
2019-02-22T02:51:35.996Z,0.00
2019-02-22T02:52:35.911Z,0.00
2019-02-22T02:53:35.827Z,0.00
2019-02-22T02:54:35.744Z,0.00
2019-02-22T02:55:35.661Z,0.00
2019-02-22T02:56:35.579Z,0.00
2019-02-22T02:57:35.493Z,0.00
2019-02-22T02:58:35.412Z,0.00
2019-02-22T02:59:35.325Z,0.00
2019-02-22T03:00:35.241Z,0.00
2019-02-22T03:01:35.156Z,0.00
2019-02-22T03:02:35.075Z,0.00
2019-02-22T03:03:34.988Z,0.00
2019-02-22T03:04:34.904Z,0.00
2019-02-22T03:05:34.823Z,0.00
2019-02-22T03:06:34.739Z,0.00
2019-02-22T03:07:34.652Z,0.00
2019-02-22T03:08:34.614Z,0.00
2019-02-22T03:09:34.487Z,0.00
2019-02-22T03:10:34.406Z,0.00
2019-02-22T03:11:34.315Z,0.00
2019-02-22T03:12:34.239Z,0.00
2019-02-22T03:13:34.201Z,0.00
2019-02-22T03:14:34.068Z,0.00
2019-02-22T03:15:33.982Z,0.00
2019-02-22T03:16:33.909Z,0.00
2019-02-22T03:17:33.809Z,0.00
2019-02-22T03:18:33.731Z,0.00
2019-02-22T03:19:33.647Z,0.00
2019-02-22T03:20:33.562Z,0.00
2019-02-22T03:21:33.480Z,0.00
2019-02-22T03:22:33.398Z,0.00
2019-02-22T03:23:33.308Z,0.00
2019-02-22T03:24:33.226Z,0.00
2019-02-22T03:25:33.155Z,0.00
2019-02-22T03:26:33.058Z,0.00
2019-02-22T03:27:32.977Z,0.00
2019-02-22T03:28:32.893Z,0.00
2019-02-22T03:29:32.814Z,0.00
2019-02-22T03:30:32.730Z,0.00
2019-02-22T03:31:32.649Z,0.00
2019-02-22T03:32:32.556Z,0.00
2019-02-22T03:33:32.484Z,0.00
2019-02-22T03:34:32.398Z,0.00
2019-02-22T03:35:32.301Z,0.00
2019-02-22T03:36:32.221Z,0.00
2019-02-22T03:37:32.137Z,0.00
2019-02-22T03:38:32.057Z,0.00
2019-02-22T03:39:31.966Z,0.00
2019-02-22T03:40:31.879Z,0.00
2019-02-22T03:41:33.240Z,0.00
2019-02-22T03:42:31.715Z,0.00
2019-02-22T03:43:31.630Z,0.00
2019-02-22T03:44:31.548Z,0.00
2019-02-22T03:45:31.465Z,0.00
2019-02-22T03:46:31.388Z,0.00
2019-02-22T03:47:31.296Z,0.00
2019-02-22T03:48:31.204Z,0.00
2019-02-22T03:49:31.130Z,0.00
2019-02-22T03:50:31.048Z,0.00
2019-02-22T03:51:30.965Z,0.00
2019-02-22T03:52:30.880Z,0.00
2019-02-22T03:53:30.794Z,0.00
2019-02-22T03:54:30.715Z,0.00
2019-02-22T03:55:30.627Z,0.00
2019-02-22T03:56:30.542Z,0.00
2019-02-22T03:57:30.461Z,0.00
2019-02-22T03:58:30.376Z,0.00
2019-02-22T03:59:30.289Z,0.00
2019-02-22T04:00:30.215Z,0.00
2019-02-22T04:01:30.131Z,0.00
2019-02-22T04:02:30.043Z,0.00
2019-02-22T04:03:29.958Z,0.00
2019-02-22T04:04:29.869Z,0.00
2019-02-22T04:05:29.786Z,0.00
2019-02-22T04:06:29.701Z,0.00
2019-02-22T04:07:29.615Z,0.00
2019-02-22T04:08:29.533Z,0.00
2019-02-22T04:09:29.449Z,0.00
2019-02-22T04:10:29.369Z,0.00
2019-02-22T04:11:29.280Z,0.00
2019-02-22T04:12:29.198Z,0.00
2019-02-22T04:13:29.182Z,0.00
2019-02-22T04:14:29.031Z,0.00
2019-02-22T04:15:28.945Z,0.00
2019-02-22T04:16:28.864Z,0.00
2019-02-22T04:17:28.778Z,0.00
2019-02-22T04:18:28.694Z,0.00
2019-02-22T04:19:28.609Z,0.00
2019-02-22T04:20:28.524Z,0.00
2019-02-22T04:21:28.449Z,0.00
2019-02-22T04:22:28.355Z,0.00
2019-02-22T04:23:28.280Z,0.00
2019-02-22T04:24:28.189Z,0.00
2019-02-22T04:25:28.104Z,0.00
2019-02-22T04:27:59.530Z,0.00
2019-02-22T04:28:59.428Z,0.00
2019-02-22T04:31:03.229Z,0.00
2019-02-22T04:32:03.138Z,0.00
2019-02-22T04:34:06.945Z,0.00
2019-02-22T04:35:06.846Z,0.00
2019-02-22T04:37:10.649Z,0.00
2019-02-22T04:38:10.554Z,0.00
2019-02-22T04:40:14.349Z,0.00
2019-02-22T04:41:14.260Z,0.00
2019-02-22T04:43:18.068Z,0.00
2019-02-22T04:44:17.971Z,0.00
2019-02-22T04:46:21.767Z,0.00
2019-02-22T04:47:21.680Z,0.00
2019-02-22T04:49:25.492Z,0.00
2019-02-22T04:50:25.398Z,0.00
2019-02-22T04:51:25.310Z,0.00
2019-02-22T04:52:25.228Z,0.00
2019-02-22T04:53:25.141Z,0.00
2019-02-22T04:54:25.059Z,0.00
2019-02-22T04:55:24.976Z,0.00
2019-02-22T04:56:24.893Z,0.00
2019-02-22T04:57:24.811Z,0.00
2019-02-22T04:58:24.720Z,0.00
2019-02-22T04:59:24.637Z,0.00
2019-02-22T05:00:24.555Z,0.00
2019-02-22T05:01:24.468Z,0.00
2019-02-22T05:02:24.384Z,0.00
2019-02-22T05:03:24.300Z,0.00
2019-02-22T05:04:24.214Z,0.00
2019-02-22T05:05:24.162Z,0.00
2019-02-22T05:06:24.048Z,0.00
2019-02-22T05:07:23.966Z,0.00
2019-02-22T05:08:23.881Z,0.00
2019-02-22T05:09:23.795Z,0.00
2019-02-22T05:10:23.712Z,0.00
2019-02-22T05:11:23.627Z,0.00
2019-02-22T05:12:23.545Z,0.00
2019-02-22T05:13:23.459Z,0.00
2019-02-22T05:14:23.376Z,0.00
2019-02-22T05:15:23.291Z,0.00
2019-02-22T05:16:23.207Z,0.00
2019-02-22T05:17:23.130Z,0.00
2019-02-22T05:18:23.041Z,0.00
2019-02-22T05:19:22.955Z,0.00
2019-02-22T05:20:22.871Z,0.00
2019-02-22T05:21:22.802Z,0.00
2019-02-22T05:22:22.705Z,0.00
2019-02-22T05:23:22.619Z,0.00
2019-02-22T05:24:22.534Z,0.00
2019-02-22T05:25:22.450Z,0.00
2019-02-22T05:26:22.372Z,0.00
2019-02-22T05:27:22.282Z,0.00
2019-02-22T05:28:22.199Z,0.00
2019-02-22T05:29:22.112Z,0.00
2019-02-22T05:30:22.032Z,0.00
2019-02-22T05:31:21.946Z,0.00
2019-02-22T05:32:21.862Z,0.00
2019-02-22T05:33:21.780Z,0.00
2019-02-22T05:34:21.699Z,0.00
2019-02-22T05:35:21.612Z,0.00
2019-02-22T05:36:21.526Z,0.00
2019-02-22T05:37:21.445Z,0.00
2019-02-22T05:38:21.361Z,0.00
2019-02-22T05:39:21.277Z,0.00
2019-02-22T05:40:21.193Z,0.00
2019-02-22T05:41:21.111Z,0.00
2019-02-22T05:42:23.184Z,0.00
2019-02-22T05:43:20.941Z,0.00
2019-02-22T05:44:20.857Z,0.00
2019-02-22T05:45:20.775Z,0.00
2019-02-22T05:46:20.685Z,0.00
2019-02-22T05:47:20.606Z,0.00
2019-02-22T05:48:20.524Z,0.00
2019-02-22T05:49:22.323Z,0.00
2019-02-22T05:50:20.355Z,0.00
2019-02-22T05:51:20.269Z,0.00
2019-02-22T05:52:20.223Z,0.00
2019-02-22T05:53:20.106Z,0.00
2019-02-22T05:54:20.020Z,0.00
2019-02-22T05:55:19.935Z,0.00
2019-02-22T05:56:19.851Z,0.00
2019-02-22T05:57:19.772Z,0.00
2019-02-22T05:58:19.685Z,0.00
2019-02-22T05:59:19.605Z,0.00
2019-02-22T06:00:19.517Z,0.00
2019-02-22T06:01:19.440Z,0.00
2019-02-22T06:02:19.355Z,0.00
2019-02-22T06:03:19.267Z,0.00
2019-02-22T06:04:19.178Z,0.00
2019-02-22T06:05:19.098Z,0.00
2019-02-22T06:06:19.023Z,0.00
2019-02-22T06:07:18.945Z,0.00
2019-02-22T06:08:18.863Z,0.00
2019-02-22T06:09:18.769Z,0.00
2019-02-22T06:10:18.682Z,0.00
2019-02-22T06:11:18.601Z,0.00
2019-02-22T06:12:18.770Z,0.00
2019-02-22T06:13:18.429Z,0.00
2019-02-22T06:14:18.348Z,0.00
2019-02-22T06:15:18.270Z,0.00
2019-02-22T06:16:18.182Z,0.00
2019-02-22T06:17:18.097Z,0.00
2019-02-22T06:18:18.015Z,0.00
2019-02-22T06:19:17.929Z,0.00
2019-02-22T06:20:17.857Z,0.00
2019-02-22T06:21:17.763Z,0.00
2019-02-22T06:22:28.788Z,0.00
2019-02-22T06:23:17.597Z,0.00
2019-02-22T06:24:17.516Z,5.63
2019-02-22T06:25:17.432Z,5.63
2019-02-22T06:26:17.350Z,5.63
2019-02-22T06:27:17.262Z,5.63
2019-02-22T06:28:17.181Z,5.63
2019-02-22T06:29:17.093Z,5.63
2019-02-22T06:30:17.022Z,5.63
2019-02-22T06:31:16.933Z,5.63
2019-02-22T06:32:16.847Z,11.25
2019-02-22T06:33:16.764Z,11.25
2019-02-22T06:34:16.680Z,11.25
2019-02-22T06:35:16.599Z,11.25
2019-02-22T06:36:16.514Z,16.88
2019-02-22T06:37:16.432Z,16.88
2019-02-22T06:38:16.350Z,16.88
2019-02-22T06:39:16.266Z,16.88
2019-02-22T06:40:16.180Z,22.50
2019-02-22T06:41:16.103Z,22.50
2019-02-22T06:42:16.014Z,22.50
2019-02-22T06:43:15.933Z,22.50
2019-02-22T06:44:15.848Z,16.88
2019-02-22T06:45:15.771Z,22.50
2019-02-22T06:46:15.683Z,28.13
2019-02-22T06:47:15.600Z,28.13
2019-02-22T06:48:15.514Z,28.13
2019-02-22T06:49:15.433Z,33.75
2019-02-22T06:50:15.353Z,33.75
2019-02-22T06:51:15.270Z,33.75
2019-02-22T06:52:15.186Z,33.75
2019-02-22T06:53:15.098Z,33.75
2019-02-22T06:54:15.020Z,28.13
2019-02-22T06:55:14.931Z,28.13
2019-02-22T06:56:14.849Z,28.13
2019-02-22T06:57:14.767Z,22.50
2019-02-22T06:58:14.683Z,22.50
2019-02-22T06:59:14.598Z,22.50
2019-02-22T07:00:14.517Z,28.13
2019-02-22T07:01:14.431Z,28.13
2019-02-22T07:02:14.349Z,22.50
2019-02-22T07:03:14.275Z,22.50
2019-02-22T07:04:14.182Z,22.50
2019-02-22T07:05:14.098Z,28.13
2019-02-22T07:06:14.016Z,22.50
2019-02-22T07:07:13.940Z,22.50
2019-02-22T07:08:13.849Z,28.13
2019-02-22T07:09:13.765Z,28.13
2019-02-22T07:10:13.687Z,28.13
2019-02-22T07:11:13.597Z,28.13
2019-02-22T07:12:13.511Z,22.50
2019-02-22T07:13:13.430Z,28.13
2019-02-22T07:14:13.348Z,28.13
2019-02-22T07:15:13.268Z,22.50
2019-02-22T07:16:13.181Z,22.50
2019-02-22T07:17:13.096Z,28.13
2019-02-22T07:18:13.014Z,28.13
2019-02-22T07:19:12.931Z,33.75
2019-02-22T07:20:12.893Z,33.75
2019-02-22T07:21:12.767Z,39.38
2019-02-22T07:22:12.676Z,39.38
2019-02-22T07:23:12.597Z,45.00
2019-02-22T07:24:12.527Z,45.00
2019-02-22T07:25:12.479Z,50.63
2019-02-22T07:26:12.343Z,50.63
2019-02-22T07:27:12.288Z,56.25
2019-02-22T07:28:12.190Z,61.88
2019-02-22T07:29:12.096Z,61.88
2019-02-22T07:30:12.016Z,61.88
2019-02-22T07:31:11.934Z,67.50
2019-02-22T07:32:11.843Z,73.13
2019-02-22T07:33:11.777Z,84.38
2019-02-22T07:34:11.762Z,101.25
2019-02-22T07:35:14.051Z,118.13
2019-02-22T07:36:11.511Z,146.25
2019-02-22T07:37:11.429Z,151.88
2019-02-22T07:38:11.344Z,146.25
2019-02-22T07:39:11.262Z,146.25
2019-02-22T07:40:11.178Z,151.88
2019-02-22T07:41:11.096Z,151.88
2019-02-22T07:42:11.015Z,151.88
2019-02-22T07:43:10.928Z,157.50
2019-02-22T07:44:10.847Z,151.88
2019-02-22T07:45:10.759Z,151.88
2019-02-22T07:46:10.702Z,146.25
2019-02-22T07:47:10.596Z,146.25
2019-02-22T07:48:10.510Z,151.88
2019-02-22T07:49:10.432Z,157.50
2019-02-22T07:50:10.345Z,163.13
2019-02-22T07:51:10.262Z,168.75
2019-02-22T07:52:10.184Z,163.13
2019-02-22T07:53:10.116Z,112.50
2019-02-22T07:54:10.013Z,101.25
2019-02-22T07:55:09.932Z,118.13
2019-02-22T07:56:09.844Z,163.13
2019-02-22T07:57:09.763Z,168.75
2019-02-22T07:58:09.682Z,180.00
2019-02-22T07:59:09.600Z,135.00
2019-02-22T08:00:09.513Z,106.88
2019-02-22T08:01:09.431Z,118.13
2019-02-22T08:02:09.347Z,135.00
2019-02-22T08:03:09.265Z,151.88
2019-02-22T08:04:09.181Z,168.75
2019-02-22T08:05:09.329Z,191.25
2019-02-22T08:06:09.016Z,146.25
2019-02-22T08:07:08.933Z,129.38
2019-02-22T08:08:08.848Z,112.50
2019-02-22T08:09:08.766Z,129.38
2019-02-22T08:10:08.689Z,157.50
2019-02-22T08:11:08.600Z,146.25
2019-02-22T08:12:08.515Z,163.13
2019-02-22T08:13:19.225Z,151.88
2019-02-22T08:14:08.350Z,129.38
2019-02-22T08:15:08.270Z,135.00
2019-02-22T08:16:08.186Z,157.50
2019-02-22T08:17:08.108Z,140.63
2019-02-22T08:18:08.019Z,123.75
2019-02-22T08:19:07.938Z,135.00
2019-02-22T08:20:07.852Z,140.63
2019-02-22T08:21:07.771Z,140.63
2019-02-22T08:22:07.687Z,157.50
2019-02-22T08:23:07.606Z,185.63
2019-02-22T08:24:07.523Z,196.88
2019-02-22T08:25:07.441Z,225.00
2019-02-22T08:26:07.356Z,253.13
2019-02-22T08:27:07.316Z,264.38
2019-02-22T08:28:07.185Z,270.00
2019-02-22T08:29:07.118Z,264.38
2019-02-22T08:30:07.025Z,270.00
2019-02-22T08:31:06.946Z,275.63
2019-02-22T08:32:06.860Z,275.63
2019-02-22T08:33:06.785Z,270.00
2019-02-22T08:34:06.695Z,281.25
2019-02-22T08:35:06.614Z,275.63
2019-02-22T08:36:06.531Z,241.88
2019-02-22T08:37:06.447Z,208.13
2019-02-22T08:38:06.367Z,180.00
2019-02-22T08:39:06.286Z,174.38
2019-02-22T08:40:06.201Z,157.50
2019-02-22T08:41:06.118Z,180.00
2019-02-22T08:42:06.038Z,196.88
2019-02-22T08:43:05.954Z,163.13
2019-02-22T08:44:05.871Z,168.75
2019-02-22T08:45:05.790Z,185.63
2019-02-22T08:46:05.710Z,191.25
2019-02-22T08:47:05.626Z,163.13
2019-02-22T08:48:05.542Z,168.75
2019-02-22T08:49:05.461Z,168.75
2019-02-22T08:50:05.381Z,180.00
2019-02-22T08:51:05.299Z,185.63
2019-02-22T08:52:05.212Z,202.50
2019-02-22T08:53:05.130Z,219.38
2019-02-22T08:54:05.047Z,236.25
2019-02-22T08:55:04.966Z,247.50
2019-02-22T08:56:04.887Z,270.00
2019-02-22T08:57:04.800Z,236.25
2019-02-22T08:58:04.721Z,174.38
2019-02-22T08:59:04.639Z,151.88
2019-02-22T09:00:04.555Z,118.13
2019-02-22T09:01:04.466Z,112.50
2019-02-22T09:02:04.390Z,118.13
2019-02-22T09:03:04.309Z,112.50
2019-02-22T09:04:04.232Z,84.38
2019-02-22T09:05:04.144Z,73.13
2019-02-22T09:06:04.064Z,73.13
2019-02-22T09:07:03.981Z,73.13
2019-02-22T09:08:03.895Z,67.50
2019-02-22T09:09:03.812Z,78.75
2019-02-22T09:10:03.731Z,95.63
2019-02-22T09:11:03.650Z,106.88
2019-02-22T09:12:03.570Z,112.50
2019-02-22T09:13:03.483Z,129.38
2019-02-22T09:14:03.401Z,135.00
2019-02-22T09:15:03.319Z,140.63
2019-02-22T09:16:03.236Z,163.13
2019-02-22T09:17:03.175Z,196.88
2019-02-22T09:18:03.071Z,241.88
2019-02-22T09:19:02.988Z,286.88
2019-02-22T09:20:02.914Z,303.75
2019-02-22T09:21:02.823Z,315.00
2019-02-22T09:22:02.746Z,292.50
2019-02-22T09:23:02.661Z,298.13
2019-02-22T09:24:02.573Z,320.63
2019-02-22T09:25:02.493Z,371.25
2019-02-22T09:26:02.412Z,405.00
2019-02-22T09:27:02.331Z,399.38
2019-02-22T09:28:02.247Z,348.75
2019-02-22T09:29:02.167Z,309.38
2019-02-22T09:30:02.084Z,258.75
2019-02-22T09:31:02.007Z,264.38
2019-02-22T09:32:01.919Z,286.88
2019-02-22T09:33:01.838Z,326.25
2019-02-22T09:34:01.759Z,309.38
2019-02-22T09:35:01.678Z,202.50
2019-02-22T09:36:01.595Z,208.13
2019-02-22T09:37:01.513Z,225.00
2019-02-22T09:38:01.431Z,213.75
2019-02-22T09:39:01.349Z,219.38
2019-02-22T09:40:01.271Z,253.13
2019-02-22T09:41:01.221Z,292.50
2019-02-22T09:42:01.107Z,230.63
2019-02-22T09:43:01.025Z,253.13
2019-02-22T09:44:00.941Z,208.13
2019-02-22T09:45:00.865Z,174.38
2019-02-22T09:46:00.833Z,151.88
2019-02-22T09:47:00.698Z,157.50
2019-02-22T09:48:00.615Z,174.38
2019-02-22T09:49:00.536Z,174.38
2019-02-22T09:50:00.452Z,151.88
2019-02-22T09:51:00.374Z,157.50
2019-02-22T09:52:00.290Z,208.13
2019-02-22T09:53:00.207Z,191.25
2019-02-22T09:54:00.126Z,191.25
2019-02-22T09:55:00.043Z,202.50
2019-02-22T09:55:59.964Z,202.50
2019-02-22T09:57:01.926Z,202.50
2019-02-22T09:57:59.799Z,202.50
2019-02-22T09:58:59.718Z,219.38
2019-02-22T09:59:59.635Z,219.38
2019-02-22T10:00:59.553Z,208.13
2019-02-22T10:01:59.471Z,191.25
2019-02-22T10:02:59.393Z,180.00
2019-02-22T10:03:59.307Z,196.88
2019-02-22T10:04:59.230Z,236.25
2019-02-22T10:05:59.144Z,292.50
2019-02-22T10:06:59.067Z,281.25
2019-02-22T10:07:58.981Z,241.88
2019-02-22T10:08:58.901Z,241.88
2019-02-22T10:09:58.820Z,225.00
2019-02-22T10:10:58.741Z,185.63
2019-02-22T10:11:58.656Z,180.00
2019-02-22T10:12:58.579Z,180.00
2019-02-22T10:14:06.290Z,180.00
2019-02-22T10:14:58.410Z,163.13
2019-02-22T10:15:58.335Z,163.13
2019-02-22T10:16:58.248Z,174.38
2019-02-22T10:17:58.167Z,196.88
2019-02-22T10:18:58.086Z,208.13
2019-02-22T10:19:58.004Z,258.75
2019-02-22T10:20:57.923Z,253.13
2019-02-22T10:21:57.864Z,202.50
2019-02-22T10:22:57.761Z,185.63
2019-02-22T10:23:57.676Z,185.63
2019-02-22T10:24:57.596Z,191.25
2019-02-22T10:25:57.515Z,247.50
2019-02-22T10:28:31.968Z,241.88
2019-02-22T10:29:31.856Z,185.63
2019-02-22T10:31:36.255Z,180.00
2019-02-22T10:32:36.135Z,185.63
2019-02-22T10:34:42.949Z,185.63
2019-02-22T10:35:42.870Z,191.25
2019-02-22T10:37:48.262Z,230.63
2019-02-22T10:38:48.117Z,253.13
2019-02-22T10:40:55.115Z,298.13
2019-02-22T10:41:54.801Z,450.00
2019-02-22T10:42:54.697Z,545.63
2019-02-22T10:43:54.626Z,562.50
2019-02-22T10:44:54.685Z,528.75
2019-02-22T10:45:54.440Z,517.50
2019-02-22T10:46:54.362Z,556.88
2019-02-22T10:47:54.277Z,590.63
2019-02-22T10:48:54.208Z,641.25
2019-02-22T10:49:54.125Z,641.25
2019-02-22T10:50:54.036Z,675.00
2019-02-22T10:51:53.956Z,686.25
2019-02-22T10:53:01.700Z,686.25
2019-02-22T10:53:53.796Z,759.38
2019-02-22T10:54:53.716Z,798.75
2019-02-22T10:55:53.644Z,843.75
2019-02-22T10:56:53.558Z,680.63
2019-02-22T10:57:53.476Z,708.75
2019-02-22T10:58:53.396Z,2266.88
2019-02-22T10:59:53.314Z,1895.63
2019-02-22T11:00:53.229Z,309.38
2019-02-22T11:01:53.154Z,303.75
2019-02-22T11:02:53.073Z,320.63
2019-02-22T11:03:53.001Z,354.38
2019-02-22T11:04:52.916Z,405.00
2019-02-22T11:05:52.839Z,427.50
2019-02-22T11:06:52.754Z,483.75
2019-02-22T11:07:52.687Z,590.63
2019-02-22T11:08:52.593Z,770.63
2019-02-22T11:09:52.519Z,821.25
2019-02-22T11:10:52.433Z,810.00
2019-02-22T11:11:52.359Z,725.63
2019-02-22T11:12:52.280Z,506.25
2019-02-22T11:13:52.200Z,461.25
2019-02-22T11:14:52.122Z,478.13
2019-02-22T11:15:52.038Z,444.38
2019-02-22T11:16:51.962Z,360.00
2019-02-22T11:17:51.883Z,320.63
2019-02-22T11:18:51.804Z,286.88
2019-02-22T11:19:51.723Z,281.25
2019-02-22T11:20:51.645Z,270.00
2019-02-22T11:21:51.559Z,247.50
2019-02-22T11:22:51.483Z,236.25
2019-02-22T11:23:51.402Z,225.00
2019-02-22T11:24:51.324Z,219.38
2019-02-22T11:25:51.246Z,219.38
2019-02-22T11:26:51.166Z,225.00
2019-02-22T11:27:51.091Z,225.00
2019-02-22T11:28:51.006Z,230.63
2019-02-22T11:29:50.933Z,236.25
2019-02-22T11:30:50.845Z,247.50
2019-02-22T11:31:50.764Z,241.88
2019-02-22T11:32:50.685Z,236.25
2019-02-22T11:33:50.601Z,247.50
2019-02-22T11:34:50.522Z,258.75
2019-02-22T11:35:50.443Z,258.75
2019-02-22T11:36:50.374Z,258.75
2019-02-22T11:37:50.286Z,253.13
2019-02-22T11:38:50.203Z,247.50
2019-02-22T11:39:50.118Z,258.75
2019-02-22T11:40:50.043Z,264.38
2019-02-22T11:41:49.960Z,247.50
2019-02-22T11:42:49.877Z,258.75
2019-02-22T11:43:49.795Z,292.50
2019-02-22T11:44:49.715Z,315.00
2019-02-22T11:45:50.037Z,326.25
2019-02-22T11:46:49.553Z,348.75
2019-02-22T11:47:49.474Z,405.00
2019-02-22T11:48:49.392Z,450.00
2019-02-22T11:49:49.312Z,472.50
2019-02-22T11:50:49.227Z,495.00
2019-02-22T11:51:49.149Z,500.63
2019-02-22T11:52:49.068Z,523.13
2019-02-22T11:53:48.989Z,534.38
2019-02-22T11:54:48.907Z,551.25
2019-02-22T11:55:48.827Z,551.25
2019-02-22T11:56:48.745Z,562.50
2019-02-22T11:57:48.669Z,573.75
2019-02-22T11:58:48.587Z,551.25
2019-02-22T11:59:48.511Z,579.38
2019-02-22T12:00:48.424Z,601.88
2019-02-22T12:01:48.371Z,247.50
2019-02-22T12:02:48.267Z,191.25
2019-02-22T12:03:48.187Z,146.25
2019-02-22T12:04:48.105Z,135.00
2019-02-22T12:05:48.093Z,129.38
2019-02-22T12:06:48.102Z,146.25
2019-02-22T12:07:48.200Z,157.50
2019-02-22T12:08:47.787Z,174.38
2019-02-22T12:09:47.704Z,191.25
2019-02-22T12:10:47.622Z,202.50
2019-02-22T12:11:47.537Z,230.63
2019-02-22T12:12:47.460Z,236.25
2019-02-22T12:13:47.382Z,258.75
2019-02-22T12:14:51.951Z,281.25
2019-02-22T12:15:47.217Z,270.00
2019-02-22T12:16:47.141Z,270.00
2019-02-22T12:17:47.061Z,270.00
2019-02-22T12:18:47.232Z,286.88
2019-02-22T12:19:47.068Z,303.75
2019-02-22T12:20:46.818Z,230.63
2019-02-22T12:21:46.742Z,208.13
2019-02-22T12:22:46.656Z,196.88
2019-02-22T12:23:46.575Z,213.75
2019-02-22T12:24:46.494Z,258.75
2019-02-22T12:25:46.409Z,281.25
2019-02-22T12:26:46.330Z,286.88
2019-02-22T12:27:46.257Z,286.88
2019-02-22T12:28:46.171Z,292.50
2019-02-22T12:29:46.117Z,315.00
2019-02-22T12:30:46.014Z,360.00
2019-02-22T12:31:45.929Z,399.38
2019-02-22T12:32:45.846Z,421.88
2019-02-22T12:33:45.765Z,444.38
2019-02-22T12:34:45.687Z,489.38
2019-02-22T12:35:45.605Z,607.50
2019-02-22T12:36:45.526Z,703.13
2019-02-22T12:37:45.445Z,528.75
2019-02-22T12:38:45.365Z,691.88
2019-02-22T12:39:45.283Z,568.13
2019-02-22T12:40:45.205Z,787.50
2019-02-22T12:41:45.124Z,495.00
2019-02-22T12:42:45.046Z,562.50
2019-02-22T12:43:44.958Z,928.13
2019-02-22T12:44:44.883Z,680.63
2019-02-22T12:45:44.833Z,601.88
2019-02-22T12:46:44.725Z,585.00
2019-02-22T12:47:44.643Z,618.75
2019-02-22T12:48:44.565Z,770.63
2019-02-22T12:49:44.482Z,725.63
2019-02-22T12:50:44.406Z,708.75
2019-02-22T12:51:44.326Z,708.75
2019-02-22T12:52:44.252Z,843.75
2019-02-22T12:53:44.165Z,894.38
2019-02-22T12:54:44.087Z,663.75
2019-02-22T12:55:44.010Z,630.00
2019-02-22T12:56:56.626Z,579.38
2019-02-22T12:57:43.849Z,382.50
2019-02-22T12:58:43.768Z,326.25
2019-02-22T12:59:43.694Z,371.25
2019-02-22T13:00:43.614Z,376.88
2019-02-22T13:01:43.535Z,393.75
2019-02-22T13:02:43.453Z,399.38
2019-02-22T13:03:43.378Z,433.13
2019-02-22T13:04:43.297Z,461.25
2019-02-22T13:05:43.218Z,489.38
2019-02-22T13:06:43.139Z,556.88
2019-02-22T13:07:43.062Z,635.63
2019-02-22T13:08:42.979Z,680.63